Rutland - Southern Vermont Rgnl Information

FAA: RUT - ICAO: KRUT

Rutland - Southern Vermont Rgnl (Airport) Location

State Vermont
County Rutland
City Rutland
Rutland - Southern Vermont Rgnl (Airport) is 5 miles south of Rutland, VT.
Latitude 43-31-47.0290N
Longitude 072-56-58.6540W
Elevation 787ft

Rutland - Southern Vermont Rgnl METARs

METAR KRUT 182356Z AUTO 00000KT 10SM BKN035 BKN046 OVC060 07/07 A2986 RMK AO2 RAE15 SLP112 6//// T00670067 10100 20067 51010 PNO $
Altimeter 29.86"
Temperature 6.7°C (44.1°F)
Wind 0° at 0KT
Clouds broken at 3,500ft broken at 4,600ft overcast at 6,000ft
Visibility 10.0mi
Time observed: 2021-10-18T23:56:00Z

Rutland - Southern Vermont Rgnl (Airport) Details

Status Operational
Activation December 1942
Ownership Public
Usage Public
Chart NEW YORK
ATC on-site No
Beacon schedule sunset-sunrise
Beacon color clear green

Rutland - Southern Vermont Rgnl (Airport) Contacts

Owner STATE OF VERMONT
Owner address VTAOT, 1 NATIONAL LIFE DRIVE, MONTPELIER, VT 05633-5001
Owner phone 802-828-2833
Manager GARY L. DAVIS
Manager address RR 2, BOX 1035, UNDERHILL, VT 05489
Manager phone 802-899-2357

Rutland - Southern Vermont Rgnl Radio Frequencies

Rutland - Southern Vermont Rgnl (Airport) Radio Frequencies

UNICOM 122.8
Common traffic advisory frequency (CTAF) 122.8